Afton, Minnesota
Current Conditions -  °F | °C
As of 1:50 PM on Wednesday 17 Dec 2014 (Local Time) from K21D Reporting Station
Overcast Overcast  
Wind Chill:   Ceiling: 1900
Heat Index: 19°   Visibility: 10mi
Dew Point: 12°   Wind: 8mph
Humidity: 74%   Direction: 350°N
Pressure: 30.3"   Gusts: NA
Location:  44.9°N, 92.78°W
Report Text: K21D 171950Z AUTO 35007KT 10SM OVC019 M07/M11 A3030 RMK AO2
Loading
Personal Weather Stations






























Interactive Weather Map New forecast layout! Learn more

10-Day Weather Forecast

Advertisements
Track Severe Weather on mobile